createdAt,value
2023-04-08T00:02:19.918Z,14.07
2023-04-08T00:04:48.288Z,13.87
2023-04-08T00:07:16.584Z,13.61
2023-04-08T00:09:44.878Z,12.86
2023-04-08T00:12:14.702Z,12.91
2023-04-08T00:14:43.013Z,13.68
2023-04-08T00:17:11.392Z,13.59
2023-04-08T00:19:39.715Z,13.65
2023-04-08T00:22:08.289Z,13.17
2023-04-08T00:24:36.808Z,13.23
2023-04-08T00:27:08.408Z,13.40
2023-04-08T00:29:38.081Z,13.09
2023-04-08T00:32:06.382Z,13.27
2023-04-08T00:34:34.633Z,12.96
2023-04-08T00:37:02.919Z,13.00
2023-04-08T00:39:31.364Z,12.86
2023-04-08T00:41:59.629Z,13.27
2023-04-08T00:44:27.951Z,12.42
2023-04-08T00:46:57.623Z,12.96
2023-04-08T00:49:27.934Z,12.79
2023-04-08T00:51:56.335Z,12.39
2023-04-08T00:54:24.634Z,12.56
2023-04-08T00:56:52.876Z,12.56
2023-04-08T00:59:21.112Z,12.77
2023-04-08T01:01:56.264Z,12.61
2023-04-08T01:04:30.556Z,12.64
2023-04-08T01:07:02.940Z,12.09
2023-04-08T01:09:33.822Z,12.63
2023-04-08T01:12:05.946Z,12.39
2023-04-08T01:14:36.645Z,11.99
2023-04-08T01:17:05.232Z,12.33
2023-04-08T01:19:38.790Z,11.96
2023-04-08T01:22:14.170Z,12.02
2023-04-08T01:24:44.467Z,11.78
2023-04-08T01:27:15.452Z,12.31
2023-04-08T01:29:44.546Z,11.62
2023-04-08T01:32:13.835Z,11.89
2023-04-08T01:34:43.054Z,11.82
2023-04-08T01:37:11.628Z,11.94
2023-04-08T01:39:40.934Z,12.34
2023-04-08T01:42:09.362Z,12.12
2023-04-08T01:44:39.497Z,12.20
2023-04-08T01:47:07.943Z,12.20
2023-04-08T01:49:36.692Z,12.14
2023-04-08T01:52:06.362Z,12.28
2023-04-08T01:54:35.234Z,12.51
2023-04-08T01:57:08.878Z,12.38
2023-04-08T01:59:38.812Z,12.27
2023-04-08T02:02:08.272Z,12.51
2023-04-08T02:04:37.057Z,12.15
2023-04-08T02:07:05.986Z,12.28
2023-04-08T02:09:34.481Z,12.17
2023-04-08T02:12:02.749Z,11.99
2023-04-08T02:14:31.252Z,12.63
2023-04-08T02:17:05.058Z,12.47
2023-04-08T02:19:37.621Z,12.65
2023-04-08T02:22:08.554Z,12.70
2023-04-08T02:24:37.289Z,12.87
2023-04-08T02:27:06.620Z,12.46
2023-04-08T02:29:35.793Z,12.58
2023-04-08T02:32:06.815Z,12.79
2023-04-08T02:34:36.381Z,13.03
2023-04-08T02:37:04.610Z,13.15
2023-04-08T02:39:33.189Z,13.04
2023-04-08T02:42:01.522Z,13.44
2023-04-08T02:44:29.772Z,13.22
2023-04-08T02:46:58.050Z,13.39
2023-04-08T02:49:27.778Z,13.51
2023-04-08T02:51:56.041Z,12.90
2023-04-08T02:54:24.972Z,13.14
2023-04-08T02:56:53.176Z,12.95
2023-04-08T02:59:21.429Z,13.01
2023-04-08T03:01:49.758Z,12.98
2023-04-08T03:04:18.073Z,12.95
2023-04-08T03:06:47.635Z,12.84
2023-04-08T03:09:15.882Z,13.09
2023-04-08T03:11:45.002Z,13.41
2023-04-08T03:14:13.280Z,13.58
2023-04-08T03:16:41.584Z,13.21
2023-04-08T03:19:09.914Z,13.42
2023-04-08T03:21:38.221Z,13.39
2023-04-08T03:24:07.996Z,13.43
2023-04-08T03:26:36.265Z,13.74
2023-04-08T03:29:04.582Z,13.36
2023-04-08T03:31:33.243Z,13.80
2023-04-08T03:34:01.488Z,13.69
2023-04-08T03:36:29.744Z,13.29
2023-04-08T03:38:58.088Z,13.71
2023-04-08T03:41:27.786Z,13.44
2023-04-08T03:43:56.103Z,13.47
2023-04-08T03:46:24.574Z,12.95
2023-04-08T03:48:53.038Z,13.39
2023-04-08T03:51:21.267Z,13.64
2023-04-08T03:53:49.905Z,13.54
2023-04-08T03:56:18.191Z,13.69
2023-04-08T03:58:47.982Z,13.54
2023-04-08T04:01:16.413Z,13.45
2023-04-08T04:03:44.933Z,13.35
2023-04-08T04:06:13.380Z,13.29
2023-04-08T04:08:41.660Z,13.20
2023-04-08T04:11:10.004Z,13.03
2023-04-08T04:13:38.323Z,12.75
2023-04-08T04:16:08.207Z,13.37
2023-04-08T04:18:36.605Z,13.07
2023-04-08T04:21:06.763Z,13.26
2023-04-08T04:23:35.286Z,13.04
2023-04-08T04:26:03.590Z,13.01
2023-04-08T04:28:31.822Z,13.19
2023-04-08T04:31:00.070Z,13.19
2023-04-08T04:33:29.731Z,13.38
2023-04-08T04:35:58.097Z,13.26
2023-04-08T04:38:27.112Z,12.86
2023-04-08T04:40:55.420Z,13.10
2023-04-08T04:43:23.726Z,13.10
2023-04-08T04:45:52.427Z,13.21
2023-04-08T04:48:20.686Z,13.32
2023-04-08T04:50:57.231Z,12.99
2023-04-08T04:53:25.495Z,12.77
2023-04-08T04:55:53.755Z,12.97
2023-04-08T04:58:22.128Z,12.41
2023-04-08T05:00:50.389Z,12.77
2023-04-08T05:03:18.788Z,13.10
2023-04-08T05:05:51.599Z,12.79
2023-04-08T05:08:21.498Z,13.06
2023-04-08T05:10:50.218Z,13.11
2023-04-08T05:13:18.900Z,13.40
2023-04-08T05:15:47.219Z,13.54
2023-04-08T05:18:15.616Z,13.41
2023-04-08T05:20:43.854Z,13.17
2023-04-08T05:23:12.230Z,13.16
2023-04-08T05:25:41.848Z,13.86
2023-04-08T05:28:10.215Z,13.66
2023-04-08T05:30:38.426Z,13.42
2023-04-08T05:33:06.696Z,13.57
2023-04-08T05:35:34.993Z,13.78
2023-04-08T05:38:03.224Z,13.87
2023-04-08T05:40:31.422Z,14.02
2023-04-08T05:43:01.293Z,14.56
2023-04-08T05:45:29.998Z,13.85
2023-04-08T05:47:58.255Z,14.86
2023-04-08T05:50:27.031Z,14.16
2023-04-08T05:52:55.586Z,14.72
2023-04-08T05:55:24.041Z,14.65
2023-04-08T05:57:52.304Z,14.86
2023-04-08T06:00:22.273Z,15.39
2023-04-08T06:02:50.774Z,15.21
2023-04-08T06:05:19.758Z,15.55
2023-04-08T06:07:48.039Z,15.15
2023-04-08T06:10:16.337Z,15.06
2023-04-08T06:12:44.698Z,15.18
2023-04-08T06:15:13.059Z,14.75
2023-04-08T06:17:42.829Z,15.00
2023-04-08T06:20:11.519Z,14.60
2023-04-08T06:22:39.958Z,14.76
2023-04-08T06:25:08.677Z,14.48
2023-04-08T06:27:37.010Z,14.32
2023-04-08T06:30:05.837Z,14.33
2023-04-08T06:32:34.149Z,14.54
2023-04-08T06:35:03.745Z,14.45
2023-04-08T06:37:32.047Z,14.23
2023-04-08T06:40:00.390Z,14.44
2023-04-08T06:42:28.706Z,14.41
2023-04-08T06:44:57.007Z,14.53
2023-04-08T06:47:25.374Z,14.29
2023-04-08T06:49:54.403Z,13.97
2023-04-08T06:52:24.123Z,14.37
2023-04-08T06:54:52.416Z,14.77
2023-04-08T06:57:20.705Z,14.71
2023-04-08T06:59:48.927Z,14.52
2023-04-08T07:02:17.359Z,14.68
2023-04-08T07:04:46.877Z,14.78
2023-04-08T07:07:15.354Z,14.85
2023-04-08T07:09:46.059Z,15.25
2023-04-08T07:12:14.358Z,15.59
2023-04-08T07:14:42.619Z,15.62
2023-04-08T07:17:11.191Z,16.20
2023-04-08T07:19:39.509Z,16.06
2023-04-08T07:22:07.755Z,15.78
2023-04-08T07:24:36.283Z,15.63
2023-04-08T07:27:06.360Z,15.89
2023-04-08T07:29:34.647Z,16.33
2023-04-08T07:32:02.918Z,16.13
2023-04-08T07:34:31.150Z,16.11
2023-04-08T07:36:59.415Z,16.49
2023-04-08T07:39:27.742Z,16.53
2023-04-08T07:41:56.054Z,17.01
2023-04-08T07:44:25.750Z,17.20
2023-04-08T07:46:54.030Z,17.48
2023-04-08T07:49:22.262Z,16.19
2023-04-08T07:51:50.613Z,16.12
2023-04-08T07:54:18.898Z,16.59
2023-04-08T07:56:47.224Z,16.30
2023-04-08T07:59:15.715Z,16.58
2023-04-08T08:01:46.895Z,16.19
2023-04-08T08:04:15.761Z,15.44
2023-04-08T08:06:44.229Z,16.36
2023-04-08T08:09:12.570Z,14.47
2023-04-08T08:11:40.881Z,14.13
2023-04-08T08:14:09.155Z,14.81
2023-04-08T08:16:38.811Z,15.30
2023-04-08T08:19:08.881Z,16.03
2023-04-08T08:21:38.157Z,15.96
2023-04-08T08:24:06.992Z,15.41
2023-04-08T08:26:36.738Z,16.19
2023-04-08T08:29:05.243Z,15.90
2023-04-08T08:31:33.532Z,16.08
2023-04-08T08:34:01.844Z,15.46
2023-04-08T08:36:32.863Z,15.69
2023-04-08T08:39:02.403Z,16.02
2023-04-08T08:41:34.988Z,15.86
2023-04-08T08:44:04.146Z,15.46
2023-04-08T08:46:32.456Z,15.31
2023-04-08T08:49:01.145Z,15.60
2023-04-08T08:51:32.856Z,14.46
2023-04-08T08:54:04.324Z,14.64
2023-04-08T08:56:34.559Z,14.67
2023-04-08T08:59:02.822Z,15.24
2023-04-08T09:01:34.786Z,15.36
2023-04-08T09:04:16.706Z,14.89
2023-04-08T09:06:47.732Z,15.12
2023-04-08T09:09:16.047Z,15.56
2023-04-08T09:11:46.158Z,15.20
2023-04-08T09:14:21.763Z,15.46
2023-04-08T09:16:50.411Z,15.32
2023-04-08T09:19:18.894Z,15.80
2023-04-08T09:22:05.932Z,15.95
2023-04-08T09:24:34.313Z,16.61
2023-04-08T09:27:02.560Z,15.63
2023-04-08T09:29:33.497Z,14.97
2023-04-08T09:32:02.974Z,14.67
2023-04-08T09:34:34.251Z,14.66
2023-04-08T09:37:04.149Z,15.21
2023-04-08T09:39:32.595Z,15.38
2023-04-08T09:42:02.102Z,15.14
2023-04-08T09:44:31.193Z,15.31
2023-04-08T09:47:06.581Z,15.40
2023-04-08T09:49:39.730Z,15.92
2023-04-08T09:52:12.341Z,15.07
2023-04-08T09:54:45.542Z,16.25
2023-04-08T09:57:18.035Z,14.86
2023-04-08T09:59:51.305Z,14.71
2023-04-08T10:02:24.763Z,14.51
2023-04-08T10:04:56.168Z,14.69
2023-04-08T10:07:25.966Z,14.91
2023-04-08T10:09:54.360Z,15.25
2023-04-08T10:12:22.720Z,15.82
2023-04-08T10:15:27.598Z,15.21
2023-04-08T10:17:57.067Z,15.23
2023-04-08T10:20:44.870Z,14.84
2023-04-08T10:23:15.580Z,15.90
2023-04-08T10:25:45.291Z,15.72
2023-04-08T10:28:26.287Z,15.54
2023-04-08T10:30:55.746Z,15.40
2023-04-08T10:33:25.477Z,15.24
2023-04-08T10:36:01.045Z,15.31
2023-04-08T10:38:30.671Z,15.83
2023-04-08T10:40:59.214Z,15.32
2023-04-08T10:43:27.755Z,15.46
2023-04-08T10:45:56.114Z,15.20
2023-04-08T10:48:25.637Z,15.66
2023-04-08T10:50:55.447Z,14.81
2023-04-08T10:53:32.438Z,14.57
2023-04-08T10:56:07.661Z,15.15
2023-04-08T10:58:36.715Z,15.35
2023-04-08T11:01:06.780Z,15.05
2023-04-08T11:03:35.902Z,14.33
2023-04-08T11:06:04.838Z,14.89
2023-04-08T11:08:34.995Z,15.25
2023-04-08T11:11:04.167Z,15.17
2023-04-08T11:13:32.889Z,14.22
2023-04-08T11:16:02.728Z,14.31
2023-04-08T11:18:32.205Z,14.56
2023-04-08T11:21:01.733Z,14.39
2023-04-08T11:23:30.594Z,14.70
2023-04-08T11:26:00.422Z,14.76
2023-04-08T11:28:29.363Z,14.34
2023-04-08T11:30:58.095Z,14.52
2023-04-08T11:33:27.310Z,14.38
2023-04-08T11:35:56.674Z,14.43
2023-04-08T11:38:25.879Z,14.40
2023-04-08T11:40:54.882Z,14.62
2023-04-08T11:43:24.643Z,14.70
2023-04-08T11:45:53.088Z,14.24
2023-04-08T11:48:21.760Z,14.54
2023-04-08T11:50:51.671Z,14.54
2023-04-08T11:53:21.379Z,14.65
2023-04-08T11:55:50.286Z,14.56
2023-04-08T11:58:19.072Z,14.84
2023-04-08T12:00:49.240Z,14.87
2023-04-08T12:03:17.809Z,15.05
2023-04-08T12:05:46.579Z,14.59
2023-04-08T12:08:14.892Z,14.65
2023-04-08T12:10:43.182Z,15.67
2023-04-08T12:13:11.514Z,15.50
2023-04-08T12:15:40.069Z,15.65
2023-04-08T12:18:09.712Z,15.75
2023-04-08T12:20:38.030Z,15.49
2023-04-08T12:23:08.059Z,14.89
2023-04-08T12:25:36.672Z,14.71
2023-04-08T12:28:04.962Z,14.85
2023-04-08T12:30:33.407Z,14.96
2023-04-08T12:33:02.488Z,14.63
2023-04-08T12:35:33.765Z,14.59
2023-04-08T12:38:02.097Z,15.05
2023-04-08T12:40:30.612Z,14.51
2023-04-08T12:42:58.870Z,14.62
2023-04-08T12:45:27.081Z,14.87
2023-04-08T12:47:58.192Z,14.83
2023-04-08T12:50:26.684Z,15.12
2023-04-08T12:52:56.919Z,14.66
2023-04-08T12:55:26.079Z,14.97
2023-04-08T12:57:54.433Z,14.74
2023-04-08T13:00:23.065Z,14.78
2023-04-08T13:02:51.516Z,15.53
2023-04-08T13:05:26.292Z,15.25
2023-04-08T13:08:02.995Z,15.70
2023-04-08T13:10:31.310Z,15.48
2023-04-08T13:12:59.650Z,14.80
2023-04-08T13:15:28.306Z,15.88
2023-04-08T13:17:57.249Z,15.62
2023-04-08T13:20:26.325Z,16.19
2023-04-08T13:22:54.995Z,15.92
2023-04-08T13:25:25.059Z,16.24
2023-04-08T13:27:53.479Z,16.24
2023-04-08T13:30:21.844Z,16.49
2023-04-08T13:32:50.206Z,16.12
2023-04-08T13:35:18.526Z,16.36
2023-04-08T13:37:47.045Z,16.19
2023-04-08T13:40:15.346Z,17.09
2023-04-08T13:42:44.996Z,16.96
2023-04-08T13:45:13.222Z,17.35
2023-04-08T13:47:41.765Z,17.85
2023-04-08T13:50:10.902Z,16.70
2023-04-08T13:52:39.147Z,17.11
2023-04-08T13:55:08.133Z,17.02
2023-04-08T13:57:36.697Z,16.94
2023-04-08T14:00:07.798Z,17.13
2023-04-08T14:02:36.124Z,16.73
2023-04-08T14:05:05.058Z,16.20
2023-04-08T14:07:33.326Z,15.38
2023-04-08T14:10:01.625Z,15.85
2023-04-08T14:12:29.846Z,15.59
2023-04-08T14:14:58.251Z,15.46
2023-04-08T14:17:27.975Z,15.52
2023-04-08T14:19:56.245Z,15.47
2023-04-08T14:22:24.537Z,15.50
2023-04-08T14:24:52.765Z,15.78
2023-04-08T14:27:21.320Z,16.00
2023-04-08T14:29:49.539Z,15.68
2023-04-08T14:32:17.870Z,16.28
2023-04-08T14:34:47.581Z,15.92
2023-04-08T14:37:17.823Z,15.71
2023-04-08T14:39:46.334Z,16.29
2023-04-08T14:42:16.570Z,15.86
2023-04-08T14:44:45.315Z,16.42
2023-04-08T14:47:13.596Z,16.26
2023-04-08T14:49:41.925Z,15.86
2023-04-08T14:52:11.503Z,16.18
2023-04-08T14:54:39.781Z,16.42
2023-04-08T14:57:08.159Z,16.77
2023-04-08T14:59:36.426Z,16.35
2023-04-08T15:02:04.814Z,16.31
2023-04-08T15:04:33.262Z,16.39
2023-04-08T15:07:02.002Z,16.08
2023-04-08T15:09:31.600Z,16.51
2023-04-08T15:12:00.013Z,16.54
2023-04-08T15:14:28.684Z,16.53
2023-04-08T15:16:56.965Z,16.20
2023-04-08T15:19:25.228Z,15.71
2023-04-08T15:21:53.571Z,15.61
2023-04-08T15:24:21.900Z,15.73
2023-04-08T15:26:51.548Z,15.54
2023-04-08T15:29:19.809Z,16.29
2023-04-08T15:31:48.043Z,15.28
2023-04-08T15:34:16.340Z,15.66
2023-04-08T15:36:45.281Z,15.85
2023-04-08T15:39:13.546Z,15.96
2023-04-08T15:41:41.860Z,16.01
2023-04-08T15:44:11.537Z,16.31
2023-04-08T15:46:39.786Z,16.14
2023-04-08T15:49:08.046Z,16.23
2023-04-08T15:51:36.541Z,16.50
2023-04-08T15:54:04.727Z,16.77
2023-04-08T15:56:33.842Z,16.49
2023-04-08T15:59:02.113Z,16.72
2023-04-08T16:01:33.170Z,15.43
2023-04-08T16:04:01.923Z,16.27
2023-04-08T16:06:30.288Z,16.53
2023-04-08T16:08:58.513Z,16.46
2023-04-08T16:11:26.776Z,16.27
2023-04-08T16:13:55.001Z,16.85
2023-04-08T16:16:23.295Z,16.61
2023-04-08T16:18:53.598Z,16.85
2023-04-08T16:21:22.045Z,16.68
2023-04-08T16:23:50.625Z,16.08
2023-04-08T16:26:19.106Z,16.73
2023-04-08T16:28:47.352Z,16.61
2023-04-08T16:31:16.539Z,16.16
2023-04-08T16:33:45.506Z,16.61
2023-04-08T16:36:15.247Z,16.53
2023-04-08T16:38:43.675Z,16.77
2023-04-08T16:41:11.943Z,16.98
2023-04-08T16:43:40.235Z,16.95
2023-04-08T16:46:12.795Z,16.96
2023-04-08T16:48:41.907Z,16.72
2023-04-08T16:51:10.515Z,17.19
2023-04-08T16:53:40.496Z,16.87
2023-04-08T16:56:14.693Z,17.18
2023-04-08T16:58:43.186Z,17.07
2023-04-08T17:01:11.672Z,17.03
2023-04-08T17:03:40.068Z,16.69
2023-04-08T17:06:08.956Z,16.72
2023-04-08T17:08:37.425Z,16.29
2023-04-08T17:11:10.258Z,16.41
2023-04-08T17:13:40.006Z,16.66
2023-04-08T17:16:11.985Z,16.58
2023-04-08T17:18:40.289Z,16.71
2023-04-08T17:21:08.776Z,16.03
2023-04-08T17:23:37.331Z,15.36
2023-04-08T17:26:08.445Z,15.82
2023-04-08T17:28:37.108Z,15.91
2023-04-08T17:31:05.834Z,16.06
2023-04-08T17:33:34.264Z,15.75
2023-04-08T17:36:02.683Z,15.16
2023-04-08T17:38:31.021Z,15.64
2023-04-08T17:40:59.376Z,15.57
2023-04-08T17:43:29.043Z,15.60
2023-04-08T17:46:00.740Z,16.16
2023-04-08T17:48:29.390Z,16.05
2023-04-08T17:51:01.695Z,16.28
2023-04-08T17:53:30.184Z,16.21
2023-04-08T17:55:58.514Z,16.16
2023-04-08T17:58:27.226Z,16.37
2023-04-08T18:00:56.877Z,16.03
2023-04-08T18:03:25.633Z,16.41
2023-04-08T18:05:55.196Z,15.82
2023-04-08T18:08:23.444Z,16.12
2023-04-08T18:10:51.818Z,15.75
2023-04-08T18:13:20.062Z,16.01
2023-04-08T18:15:48.349Z,16.00
2023-04-08T18:18:20.171Z,16.07
2023-04-08T18:20:48.484Z,16.01
2023-04-08T18:23:16.935Z,16.04
2023-04-08T18:25:47.148Z,15.95
2023-04-08T18:28:15.632Z,16.31
2023-04-08T18:30:44.198Z,16.48
2023-04-08T18:33:12.551Z,16.55
2023-04-08T18:35:43.293Z,16.59
2023-04-08T18:38:11.824Z,16.72
2023-04-08T18:40:40.725Z,16.78
2023-04-08T18:43:09.649Z,16.87
2023-04-08T18:45:37.961Z,16.95
2023-04-08T18:48:06.676Z,17.00
2023-04-08T18:50:35.293Z,17.02
2023-04-08T18:53:05.037Z,16.96
2023-04-08T18:55:35.941Z,16.93
2023-04-08T18:58:04.760Z,17.06
2023-04-08T19:00:33.121Z,17.11
2023-04-08T19:03:03.316Z,16.97
2023-04-08T19:05:32.990Z,17.04
2023-04-08T19:08:01.790Z,17.04
2023-04-08T19:10:32.277Z,17.00
2023-04-08T19:13:01.065Z,17.01
2023-04-08T19:15:29.789Z,17.18
2023-04-08T19:17:59.067Z,17.21
2023-04-08T19:20:28.556Z,17.22
2023-04-08T19:22:57.254Z,17.11
2023-04-08T19:25:25.623Z,17.18
2023-04-08T19:27:55.247Z,17.21
2023-04-08T19:30:23.578Z,17.15
2023-04-08T19:32:52.010Z,17.18
2023-04-08T19:35:20.290Z,17.19
2023-04-08T19:37:48.557Z,17.16
2023-04-08T19:40:16.844Z,17.15
2023-04-08T19:42:45.754Z,17.20
2023-04-08T19:45:15.824Z,17.11
2023-04-08T19:47:44.944Z,16.87
2023-04-08T19:50:13.537Z,16.95
2023-04-08T19:52:41.788Z,16.53
2023-04-08T19:55:11.296Z,16.68
2023-04-08T19:57:39.580Z,16.72
2023-04-08T20:00:09.278Z,16.70
2023-04-08T20:02:39.169Z,16.22
2023-04-08T20:05:08.050Z,16.56
2023-04-08T20:07:36.826Z,16.50
2023-04-08T20:10:05.415Z,16.55
2023-04-08T20:12:33.733Z,16.66
2023-04-08T20:15:02.340Z,16.72
2023-04-08T20:17:30.751Z,16.83
2023-04-08T20:20:00.556Z,16.91
2023-04-08T20:22:28.838Z,17.00
2023-04-08T20:24:57.335Z,16.98
2023-04-08T20:27:25.657Z,15.89
2023-04-08T20:29:55.358Z,16.35
2023-04-08T20:32:24.141Z,16.58
2023-04-08T20:34:52.424Z,17.02
2023-04-08T20:37:22.030Z,16.92
2023-04-08T20:39:50.266Z,16.90
2023-04-08T20:42:18.620Z,17.12
2023-04-08T20:44:46.884Z,16.54
2023-04-08T20:47:15.606Z,16.79
2023-04-08T20:49:43.883Z,16.85
2023-04-08T20:52:12.143Z,17.03
2023-04-08T20:54:41.840Z,16.99
2023-04-08T20:57:10.353Z,16.74
2023-04-08T20:59:38.610Z,16.78
2023-04-08T21:02:07.760Z,16.87
2023-04-08T21:04:36.062Z,16.93
2023-04-08T21:07:04.376Z,17.01
2023-04-08T21:09:32.641Z,17.00
2023-04-08T21:12:02.911Z,17.02
2023-04-08T21:14:32.057Z,17.02
2023-04-08T21:17:00.409Z,17.11
2023-04-08T21:19:28.670Z,17.16
2023-04-08T21:21:56.892Z,17.06
2023-04-08T21:24:25.395Z,17.00
2023-04-08T21:26:53.660Z,16.89
2023-04-08T21:29:23.277Z,17.03
2023-04-08T21:31:51.612Z,17.10
2023-04-08T21:34:19.854Z,17.25
2023-04-08T21:36:48.112Z,17.30
2023-04-08T21:39:16.364Z,17.27
2023-04-08T21:41:44.651Z,17.28
2023-04-08T21:44:13.402Z,17.36
2023-04-08T21:46:43.105Z,17.33
2023-04-08T21:49:11.863Z,17.27
2023-04-08T21:51:41.021Z,16.92
2023-04-08T21:54:09.297Z,16.86
2023-04-08T21:56:37.642Z,16.79
2023-04-08T21:59:06.408Z,16.95
2023-04-08T22:01:34.747Z,16.71
2023-04-08T22:04:04.677Z,16.72
2023-04-08T22:06:33.143Z,16.49
2023-04-08T22:09:01.439Z,16.57
2023-04-08T22:11:29.842Z,16.65
2023-04-08T22:13:58.137Z,16.44
2023-04-08T22:16:26.392Z,16.63
2023-04-08T22:18:54.927Z,16.14
2023-04-08T22:21:24.867Z,16.63
2023-04-08T22:23:53.159Z,16.85
2023-04-08T22:26:21.566Z,16.77
2023-04-08T22:28:50.977Z,16.40
2023-04-08T22:31:19.554Z,16.31
2023-04-08T22:33:47.978Z,16.37
2023-04-08T22:36:16.232Z,16.65
2023-04-08T22:38:46.341Z,16.53
2023-04-08T22:41:18.861Z,16.45
2023-04-08T22:43:47.214Z,16.43
2023-04-08T22:46:15.861Z,16.35
2023-04-08T22:48:44.118Z,16.52
2023-04-08T22:51:12.644Z,16.64
2023-04-08T22:53:41.078Z,16.69
2023-04-08T22:56:10.698Z,16.53
2023-04-08T22:58:39.000Z,16.27
2023-04-08T23:01:14.396Z,16.11
2023-04-08T23:03:42.738Z,16.41
2023-04-08T23:06:11.536Z,16.35
2023-04-08T23:08:39.817Z,15.66
2023-04-08T23:11:08.501Z,16.15
2023-04-08T23:13:38.264Z,16.13
2023-04-08T23:16:06.990Z,16.11
2023-04-08T23:18:35.365Z,16.03
2023-04-08T23:21:03.930Z,15.94
2023-04-08T23:23:32.209Z,15.96
2023-04-08T23:26:00.611Z,16.12
2023-04-08T23:28:28.866Z,16.07
2023-04-08T23:30:58.530Z,16.25
2023-04-08T23:33:26.924Z,16.30
2023-04-08T23:35:55.322Z,15.84
2023-04-08T23:38:23.569Z,15.23
2023-04-08T23:40:51.852Z,15.84
2023-04-08T23:43:20.129Z,15.90
2023-04-08T23:45:48.387Z,15.68
2023-04-08T23:48:17.995Z,15.86
2023-04-08T23:50:46.204Z,15.49
2023-04-08T23:53:14.436Z,15.39
2023-04-08T23:55:42.685Z,15.80
2023-04-08T23:58:10.932Z,15.80
